Allendale, Michigan
Current Conditions -  °F | °C
As of 2:53 PM on Friday 24 Oct 2014 (Local Time) from KBIV Reporting Station
Overcast Overcast  
Wind Chill: 59°   Ceiling: 1500
Heat Index: 59°   Visibility: 10mi
Dew Point: 50°   Wind: 8mph
Humidity: 72%   Direction: 250°WSW
Pressure: 30.01"   Gusts: NA
Location:  42.97°N, 85.95°W
Report Text: KBIV 241853Z AUTO 25007KT 10SM OVC015 15/10 A3001 RMK AO2 SLP164 T01500100
Loading
Personal Weather Stations






























Interactive Weather Map
Tropical Storm Tracking
New forecast layout! Learn more

10-Day Weather Forecast

Advertisements
Track Severe Weather on mobile